Terminal Aerodrome Forecast
Issued by NWS Duluth, MN

Home | Current Version | Previous Version | Text Only | Print | Product List | Glossary On
Versions: 1 2 3 4 5 6 7 8 9 10 11 12 13 14 15 16 17 18 19 20 21 22 23 24
000
FTUS43 KDLH 151140
TAFINL
TAF
KINL 151140Z 1512/1612 21004KT P6SM SKC WS014/25035KT
     FM151600 23009KT P6SM SCT100 WS016/26040KT
     FM160000 22006KT P6SM FEW010
     FM161100 22003KT 5SM BR SCT008=

USA.gov is the U.S. government's official web portal to all federal, state and local government web resources and services.